Time;durP1;ratioP1;P1;durP2;ratioP2;P2;SDS_P1;SDS_P2;PMS_P1;PMS_P2;Temp;Humidity;BMP_temperature;BMP_pressure;BME280_temperature;BME280_humidity;BME280_pressure;Samples;Min_cycle;Max_cycle;Signal;HPM_P1;HPM_P2
2024/03/24 00:00:37;;;;;;;;;;;19.90;44.90;;;;;;8362057;27;19921;-53
2024/03/24 00:04:38;;;;;;;;;;;20.00;45.00;;;;;;8362185;28;19916;-51
2024/03/24 00:08:39;;;;;;;;;;;20.00;45.20;;;;;;8344629;28;19913;-50
2024/03/24 00:12:39;;;;;;;;;;;20.00;45.20;;;;;;8361848;27;19917;-51
2024/03/24 00:16:40;;;;;;;;;;;19.90;45.30;;;;;;8362720;28;19932;-56
2024/03/24 00:20:41;;;;;;;;;;;19.90;45.30;;;;;;8333854;27;19923;-48
2024/03/24 00:24:41;;;;;;;;;;;20.00;45.50;;;;;;8304198;28;20447;-48
2024/03/24 00:28:42;;;;;;;;;;;19.90;45.40;;;;;;8311242;28;19970;-51
2024/03/24 00:32:42;;;;;;;;;;;19.70;44.50;;;;;;8320456;28;19913;-54
2024/03/24 00:36:43;;;;;;;;;;;19.60;43.80;;;;;;8330307;27;19960;-55
2024/03/24 00:40:43;;;;;;;;;;;19.50;43.50;;;;;;8322432;28;19917;-57
2024/03/24 00:44:44;;;;;;;;;;;19.40;43.10;;;;;;8328242;28;19924;-57
2024/03/24 00:48:44;;;;;;;;;;;19.50;42.70;;;;;;8309641;28;20302;-56
2024/03/24 00:52:45;;;;;;;;;;;19.50;42.80;;;;;;8381988;28;20066;-54
2024/03/24 00:56:46;;;;;;;;;;;19.50;42.30;;;;;;8299727;28;19917;-57
2024/03/24 01:00:46;;;;;;;;;;;19.40;42.20;;;;;;8301917;28;19918;-55
2024/03/24 01:04:47;;;;;;;;;;;19.50;42.00;;;;;;8318060;28;20389;-53
2024/03/24 01:08:47;;;;;;;;;;;19.60;41.90;;;;;;8315651;28;19940;-55
2024/03/24 01:12:49;;;;;;;;;;;19.70;42.10;;;;;;8328045;28;19913;-55
2024/03/24 01:16:50;;;;;;;;;;;19.70;42.70;;;;;;8360758;28;19921;-61
2024/03/24 01:20:51;;;;;;;;;;;19.80;42.50;;;;;;8360918;28;19981;-60
2024/03/24 01:24:52;;;;;;;;;;;19.80;42.70;;;;;;8360064;28;19965;-58
2024/03/24 01:28:52;;;;;;;;;;;19.80;42.60;;;;;;8360656;28;19909;-58
2024/03/24 01:32:53;;;;;;;;;;;19.80;43.00;;;;;;8360803;28;20273;-57
2024/03/24 01:36:53;;;;;;;;;;;19.80;43.30;;;;;;8360122;28;19917;-57
2024/03/24 01:40:54;;;;;;;;;;;19.80;43.20;;;;;;8336821;28;19981;-57
2024/03/24 01:44:54;;;;;;;;;;;19.70;43.00;;;;;;8333689;27;19924;-56
2024/03/24 01:48:55;;;;;;;;;;;19.50;42.70;;;;;;8327306;28;20338;-58
2024/03/24 01:52:56;;;;;;;;;;;19.50;42.50;;;;;;8331820;28;19909;-55
2024/03/24 01:56:56;;;;;;;;;;;19.50;42.10;;;;;;8359992;28;19920;-58
2024/03/24 02:00:57;;;;;;;;;;;19.60;42.10;;;;;;8359812;28;20015;-58
2024/03/24 02:04:57;;;;;;;;;;;19.60;43.70;;;;;;8359772;28;19909;-57
2024/03/24 02:08:58;;;;;;;;;;;19.70;43.80;;;;;;8359623;28;19913;-58
2024/03/24 02:12:59;;;;;;;;;;;19.70;43.60;;;;;;8359322;27;19962;-57
2024/03/24 02:17:00;;;;;;;;;;;19.70;43.40;;;;;;8359627;28;19916;-57
2024/03/24 02:21:01;;;;;;;;;;;19.70;43.30;;;;;;8358829;28;19917;-58
2024/03/24 02:25:01;;;;;;;;;;;19.70;43.30;;;;;;8359396;28;20419;-58
2024/03/24 02:29:02;;;;;;;;;;;19.70;43.50;;;;;;8359127;28;19912;-57
2024/03/24 02:33:04;;;;;;;;;;;19.70;43.50;;;;;;8358238;28;20478;-57
2024/03/24 02:37:05;;;;;;;;;;;19.70;43.40;;;;;;8359966;28;20361;-58
2024/03/24 02:41:05;;;;;;;;;;;19.70;43.60;;;;;;8358933;28;19917;-58
2024/03/24 02:45:06;;;;;;;;;;;19.70;43.60;;;;;;8358722;28;19913;-56
2024/03/24 02:49:08;;;;;;;;;;;19.70;43.60;;;;;;8358583;28;20015;-56
2024/03/24 02:53:08;;;;;;;;;;;19.60;43.60;;;;;;8358419;28;20004;-56
2024/03/24 02:57:09;;;;;;;;;;;19.70;43.60;;;;;;8358488;28;19909;-57
2024/03/24 03:01:09;;;;;;;;;;;19.70;43.60;;;;;;8358358;28;20370;-55
2024/03/24 03:05:10;;;;;;;;;;;19.70;43.80;;;;;;8358476;28;19952;-55
2024/03/24 03:09:10;;;;;;;;;;;19.70;43.80;;;;;;8358155;28;20322;-57
2024/03/24 03:13:11;;;;;;;;;;;19.70;43.80;;;;;;8359857;27;19913;-54
2024/03/24 03:17:12;;;;;;;;;;;19.70;43.70;;;;;;8358078;28;19963;-56
2024/03/24 03:21:13;;;;;;;;;;;19.70;43.80;;;;;;8357948;28;19917;-58
2024/03/24 03:25:13;;;;;;;;;;;19.70;43.80;;;;;;8357840;28;19912;-56
2024/03/24 03:29:14;;;;;;;;;;;19.80;43.90;;;;;;8357003;28;19915;-57
2024/03/24 03:33:15;;;;;;;;;;;19.70;43.80;;;;;;8357896;28;19917;-54
2024/03/24 03:37:15;;;;;;;;;;;19.70;43.90;;;;;;8358434;28;20383;-52
2024/03/24 03:41:16;;;;;;;;;;;19.70;43.90;;;;;;8357407;28;19923;-56
2024/03/24 03:45:18;;;;;;;;;;;19.70;44.00;;;;;;8357519;27;20366;-54
2024/03/24 03:49:19;;;;;;;;;;;19.70;44.10;;;;;;8357371;28;19909;-56
2024/03/24 03:53:24;;;;;;;;;;;19.70;44.00;;;;;;8357047;28;19916;-57
2024/03/24 03:57:25;;;;;;;;;;;19.70;44.20;;;;;;8339562;28;19965;-58
2024/03/24 04:01:25;;;;;;;;;;;19.70;44.20;;;;;;8350636;27;19917;-57
2024/03/24 04:05:26;;;;;;;;;;;19.70;44.30;;;;;;8356519;28;20008;-58
2024/03/24 04:09:26;;;;;;;;;;;19.70;44.10;;;;;;8357245;28;19916;-58
2024/03/24 04:13:27;;;;;;;;;;;19.70;44.20;;;;;;8355554;27;20445;-58
2024/03/24 04:17:28;;;;;;;;;;;19.70;44.20;;;;;;8356718;28;19912;-59
2024/03/24 04:21:28;;;;;;;;;;;19.80;44.50;;;;;;8356608;28;19924;-58
2024/03/24 04:25:29;;;;;;;;;;;19.70;44.90;;;;;;8356500;28;19913;-59
2024/03/24 04:29:29;;;;;;;;;;;19.70;45.10;;;;;;8356365;28;19934;-57
2024/03/24 04:33:31;;;;;;;;;;;19.70;45.00;;;;;;8324981;28;20346;-58
2024/03/24 04:37:31;;;;;;;;;;;19.80;44.60;;;;;;8323247;28;19917;-58
2024/03/24 04:41:32;;;;;;;;;;;19.70;44.60;;;;;;8346178;27;19921;-57
2024/03/24 04:45:33;;;;;;;;;;;19.70;44.70;;;;;;8357524;28;19912;-58
2024/03/24 04:49:33;;;;;;;;;;;19.60;44.80;;;;;;8357685;28;19912;-57
2024/03/24 04:53:34;;;;;;;;;;;19.70;44.60;;;;;;8357849;28;20292;-58
2024/03/24 04:57:34;;;;;;;;;;;19.70;44.00;;;;;;8359282;28;20625;-58
2024/03/24 05:01:35;;;;;;;;;;;19.80;43.40;;;;;;8359147;28;19921;-58
2024/03/24 05:05:38;;;;;;;;;;;19.90;43.10;;;;;;8360226;28;20607;-58
2024/03/24 05:09:38;;;;;;;;;;;19.90;43.30;;;;;;8359042;28;19996;-58
2024/03/24 05:13:39;;;;;;;;;;;19.90;42.50;;;;;;8358789;27;19925;-58
2024/03/24 05:17:39;;;;;;;;;;;20.00;42.40;;;;;;8359042;28;19913;-57
2024/03/24 05:21:40;;;;;;;;;;;19.90;42.10;;;;;;8358446;28;20011;-57
2024/03/24 05:25:41;;;;;;;;;;;19.90;42.00;;;;;;8358729;28;19999;-56
2024/03/24 05:29:41;;;;;;;;;;;19.90;42.40;;;;;;8358591;28;19912;-57
2024/03/24 05:33:44;;;;;;;;;;;19.70;43.40;;;;;;8358411;28;19912;-56
2024/03/24 05:37:44;;;;;;;;;;;19.70;43.60;;;;;;8358324;28;20700;-57
2024/03/24 05:41:48;;;;;;;;;;;19.70;42.90;;;;;;8357970;27;19921;-57
2024/03/24 05:45:49;;;;;;;;;;;19.80;42.50;;;;;;8357973;28;19913;-57
2024/03/24 05:49:49;;;;;;;;;;;19.80;42.20;;;;;;8358054;28;19965;-57
2024/03/24 05:53:50;;;;;;;;;;;19.80;41.90;;;;;;8357398;28;20370;-58
2024/03/24 05:57:50;;;;;;;;;;;19.90;41.80;;;;;;8357658;28;19919;-57
2024/03/24 06:01:53;;;;;;;;;;;19.90;41.70;;;;;;8357694;28;19917;-58
2024/03/24 06:05:53;;;;;;;;;;;19.90;41.50;;;;;;8339782;28;19920;-57
2024/03/24 06:09:54;;;;;;;;;;;19.90;41.50;;;;;;8357483;28;19919;-58
2024/03/24 06:13:54;;;;;;;;;;;19.90;41.30;;;;;;8357397;27;19932;-58
2024/03/24 06:17:55;;;;;;;;;;;19.80;42.00;;;;;;8357443;28;20301;-58
2024/03/24 06:21:56;;;;;;;;;;;19.70;43.10;;;;;;8357542;28;20057;-57
2024/03/24 06:25:56;;;;;;;;;;;19.70;42.90;;;;;;8356983;28;19920;-57
2024/03/24 06:29:57;;;;;;;;;;;19.80;42.20;;;;;;8357203;28;20360;-58
2024/03/24 06:33:59;;;;;;;;;;;19.90;41.80;;;;;;8357019;28;19952;-57
2024/03/24 06:37:59;;;;;;;;;;;20.00;41.60;;;;;;8356676;28;19966;-57
2024/03/24 06:42:04;;;;;;;;;;;20.00;41.30;;;;;;8356547;27;19917;-57
2024/03/24 06:46:04;;;;;;;;;;;20.00;41.20;;;;;;8356655;28;19981;-57
2024/03/24 06:50:06;;;;;;;;;;;20.00;41.00;;;;;;8356844;28;19928;-57
2024/03/24 06:54:07;;;;;;;;;;;20.10;40.90;;;;;;8356320;28;20284;-56
2024/03/24 06:58:08;;;;;;;;;;;20.10;40.80;;;;;;8356253;28;20397;-57
2024/03/24 07:02:08;;;;;;;;;;;20.10;40.80;;;;;;8356318;28;20580;-57
2024/03/24 07:06:09;;;;;;;;;;;20.00;41.70;;;;;;8355121;28;19934;-57
2024/03/24 07:10:10;;;;;;;;;;;19.80;42.70;;;;;;8338242;28;20140;-56
2024/03/24 07:14:11;;;;;;;;;;;19.80;42.30;;;;;;8355676;27;19924;-57
2024/03/24 07:18:11;;;;;;;;;;;19.90;41.80;;;;;;8355784;28;20434;-58
2024/03/24 07:22:12;;;;;;;;;;;20.00;41.50;;;;;;8355890;28;19913;-57
2024/03/24 07:26:12;;;;;;;;;;;20.00;41.20;;;;;;8355706;28;19954;-58
2024/03/24 07:30:13;;;;;;;;;;;20.00;41.00;;;;;;8355630;28;19913;-57
2024/03/24 07:34:14;;;;;;;;;;;20.10;40.90;;;;;;8355648;28;20435;-57
2024/03/24 07:38:14;;;;;;;;;;;20.10;40.80;;;;;;8355412;28;19913;-57
2024/03/24 07:42:15;;;;;;;;;;;20.10;40.60;;;;;;8355229;27;19921;-56
2024/03/24 07:46:15;;;;;;;;;;;20.10;40.50;;;;;;8355713;28;19942;-56
2024/03/24 07:50:16;;;;;;;;;;;20.10;40.50;;;;;;8355249;28;20293;-58
2024/03/24 07:54:17;;;;;;;;;;;20.00;41.40;;;;;;8354972;28;20004;-57
2024/03/24 07:58:17;;;;;;;;;;;19.90;42.20;;;;;;8354885;28;19913;-56
2024/03/24 08:02:18;;;;;;;;;;;19.90;41.80;;;;;;8354994;28;19921;-57
2024/03/24 08:06:19;;;;;;;;;;;19.90;41.30;;;;;;8354625;28;20005;-57
2024/03/24 08:10:21;;;;;;;;;;;20.00;41.10;;;;;;8354708;28;19909;-57
2024/03/24 08:14:21;;;;;;;;;;;20.10;40.90;;;;;;8354647;27;19924;-57
2024/03/24 08:18:22;;;;;;;;;;;20.10;40.60;;;;;;8360148;28;19920;-56
2024/03/24 08:22:22;;;;;;;;;;;20.10;40.60;;;;;;8360105;28;19924;-57
2024/03/24 08:26:23;;;;;;;;;;;20.10;40.40;;;;;;8360198;28;19920;-57
2024/03/24 08:30:23;;;;;;;;;;;20.10;40.40;;;;;;8342478;28;20335;-57
2024/03/24 08:34:24;;;;;;;;;;;20.10;40.30;;;;;;8360138;28;19920;-58
2024/03/24 08:38:26;;;;;;;;;;;20.10;40.20;;;;;;8359983;28;19916;-57
2024/03/24 08:42:26;;;;;;;;;;;20.00;41.40;;;;;;8359854;27;19917;-56
2024/03/24 08:46:29;;;;;;;;;;;19.80;42.60;;;;;;8359837;28;19913;-57
2024/03/24 08:50:29;;;;;;;;;;;19.90;41.60;;;;;;8359468;28;19959;-57
2024/03/24 08:54:30;;;;;;;;;;;20.00;41.10;;;;;;8359669;28;19908;-57
2024/03/24 08:58:31;;;;;;;;;;;20.00;40.90;;;;;;8359382;28;19913;-56
2024/03/24 09:02:31;;;;;;;;;;;20.00;40.60;;;;;;8359499;28;20398;-57
2024/03/24 09:06:32;;;;;;;;;;;20.00;40.50;;;;;;8359396;27;19913;-56
2024/03/24 09:10:32;;;;;;;;;;;20.10;40.40;;;;;;8359105;28;19913;-57
2024/03/24 09:14:33;;;;;;;;;;;20.10;40.30;;;;;;8358809;27;19932;-56
2024/03/24 09:18:34;;;;;;;;;;;20.10;40.20;;;;;;8359341;28;20297;-57
2024/03/24 09:22:35;;;;;;;;;;;20.00;40.10;;;;;;8358423;28;19916;-57
2024/03/24 09:26:36;;;;;;;;;;;20.00;40.10;;;;;;8358619;28;19969;-57
2024/03/24 09:30:36;;;;;;;;;;;19.90;41.40;;;;;;8357906;28;20387;-57
2024/03/24 09:34:37;;;;;;;;;;;19.80;42.10;;;;;;8359105;28;19920;-56
2024/03/24 09:38:38;;;;;;;;;;;19.80;41.50;;;;;;8358312;28;19916;-56
2024/03/24 09:42:39;;;;;;;;;;;19.90;41.10;;;;;;8358038;27;20289;-56
2024/03/24 09:46:40;;;;;;;;;;;19.90;40.80;;;;;;8358122;28;20484;-57
2024/03/24 09:50:41;;;;;;;;;;;20.00;40.60;;;;;;8358185;28;19934;-57
2024/03/24 09:54:41;;;;;;;;;;;20.00;40.40;;;;;;8358061;28;19917;-58
2024/03/24 09:58:44;;;;;;;;;;;20.10;40.30;;;;;;8340166;28;19913;-56
2024/03/24 10:02:44;;;;;;;;;;;20.10;40.10;;;;;;8357731;28;19958;-58
2024/03/24 10:06:45;;;;;;;;;;;20.10;40.00;;;;;;8357622;28;19957;-57
2024/03/24 10:10:46;;;;;;;;;;;20.10;40.00;;;;;;8357665;28;19916;-56
2024/03/24 10:14:46;;;;;;;;;;;20.10;39.90;;;;;;8357825;27;20458;-58
2024/03/24 10:18:48;;;;;;;;;;;20.00;41.10;;;;;;8357323;28;19909;-57
2024/03/24 10:22:55;;;;;;;;;;;19.90;41.70;;;;;;8357178;28;19956;-57
2024/03/24 10:26:58;;;;;;;;;;;19.90;41.10;;;;;;8357265;28;19913;-59
2024/03/24 10:31:06;;;;;;;;;;;20.00;40.70;;;;;;8357017;28;19994;-57
2024/03/24 10:35:07;;;;;;;;;;;20.00;40.40;;;;;;8356787;28;19913;-58
2024/03/24 10:39:08;;;;;;;;;;;20.00;40.30;;;;;;8356888;28;19957;-58
2024/03/24 10:43:09;;;;;;;;;;;20.00;40.10;;;;;;8356557;27;19917;-57
2024/03/24 10:47:10;;;;;;;;;;;20.10;40.00;;;;;;8356482;28;20433;-58
2024/03/24 10:51:13;;;;;;;;;;;20.10;40.00;;;;;;8356672;28;20315;-58
2024/03/24 10:55:14;;;;;;;;;;;20.10;39.90;;;;;;8356331;28;19908;-58
2024/03/24 10:59:15;;;;;;;;;;;20.00;39.70;;;;;;8356573;28;19916;-57
2024/03/24 11:03:16;;;;;;;;;;;20.10;39.90;;;;;;8356066;28;19917;-57
2024/03/24 11:07:17;;;;;;;;;;;19.90;41.10;;;;;;8356055;28;19992;-57
2024/03/24 11:11:18;;;;;;;;;;;19.80;41.40;;;;;;8356028;28;19913;-58
2024/03/24 11:15:19;;;;;;;;;;;19.90;40.80;;;;;;8355705;27;19929;-57
2024/03/24 11:19:29;;;;;;;;;;;20.00;40.50;;;;;;8355947;28;19909;-57
2024/03/24 11:23:33;;;;;;;;;;;20.00;40.30;;;;;;8355719;28;19917;-58
2024/03/24 11:27:42;;;;;;;;;;;20.00;40.10;;;;;;8355779;28;19958;-57
2024/03/24 11:31:42;;;;;;;;;;;20.10;40.00;;;;;;8355710;28;19909;-57
2024/03/24 11:35:45;;;;;;;;;;;20.10;39.90;;;;;;8355335;28;19913;-58
2024/03/24 11:39:49;;;;;;;;;;;20.10;39.80;;;;;;8355420;28;19909;-57
2024/03/24 11:43:55;;;;;;;;;;;20.10;39.70;;;;;;8355137;27;19957;-57
2024/03/24 11:48:14;;;;;;;;;;;20.10;39.70;;;;;;8355204;28;19913;-58
2024/03/24 11:52:16;;;;;;;;;;;20.00;40.10;;;;;;8358318;28;19920;-58
2024/03/24 11:56:18;;;;;;;;;;;19.80;41.20;;;;;;8361076;28;19912;-57
2024/03/24 12:00:19;;;;;;;;;;;19.80;41.30;;;;;;8361057;28;19956;-57
2024/03/24 12:04:20;;;;;;;;;;;19.90;40.60;;;;;;8360951;28;19916;-57
2024/03/24 12:08:21;;;;;;;;;;;19.90;40.30;;;;;;8360436;28;19913;-58
2024/03/24 12:12:22;;;;;;;;;;;20.00;40.10;;;;;;8360672;27;19923;-57
2024/03/24 12:16:23;;;;;;;;;;;20.00;40.00;;;;;;8360669;28;20374;-58
2024/03/24 12:20:23;;;;;;;;;;;20.00;39.90;;;;;;8360455;28;20354;-57
2024/03/24 12:24:24;;;;;;;;;;;20.00;39.80;;;;;;8360371;28;19945;-58
2024/03/24 12:28:25;;;;;;;;;;;20.00;39.70;;;;;;8360168;28;20389;-57
2024/03/24 12:32:26;;;;;;;;;;;20.00;39.60;;;;;;8360416;28;19956;-57
2024/03/24 12:36:26;;;;;;;;;;;20.00;39.60;;;;;;8360029;28;19916;-58
2024/03/24 12:40:27;;;;;;;;;;;20.00;40.30;;;;;;8360230;28;19967;-58
2024/03/24 12:44:28;;;;;;;;;;;19.80;41.10;;;;;;8359813;28;20417;-57
2024/03/24 12:48:29;;;;;;;;;;;19.90;41.00;;;;;;8359793;28;19986;-58
2024/03/24 12:52:30;;;;;;;;;;;19.90;40.50;;;;;;8341726;28;19909;-57
2024/03/24 12:56:30;;;;;;;;;;;19.90;40.30;;;;;;8359874;28;19958;-58
2024/03/24 13:00:33;;;;;;;;;;;19.90;40.00;;;;;;8359451;28;19967;-57
2024/03/24 13:04:33;;;;;;;;;;;20.00;39.90;;;;;;8358018;28;19909;-58
2024/03/24 13:08:34;;;;;;;;;;;20.00;39.80;;;;;;8359253;28;20007;-58
2024/03/24 13:12:35;;;;;;;;;;;20.00;39.70;;;;;;8359140;28;20034;-56
2024/03/24 13:16:35;;;;;;;;;;;20.00;39.50;;;;;;8358845;28;19938;-57
2024/03/24 13:20:38;;;;;;;;;;;20.00;39.50;;;;;;8358917;28;19993;-57
2024/03/24 13:24:50;;;;;;;;;;;20.00;39.40;;;;;;8358940;28;19909;-57
2024/03/24 13:28:50;;;;;;;;;;;19.90;40.20;;;;;;8358615;28;20289;-56
2024/03/24 13:32:51;;;;;;;;;;;19.80;41.10;;;;;;8358766;28;19967;-57
2024/03/24 13:37:27;;;;;;;;;;;19.90;40.80;;;;;;8358409;28;19909;-57
2024/03/24 13:41:33;;;;;;;;;;;19.90;40.30;;;;;;8383252;27;19964;-56
2024/03/24 13:45:43;;;;;;;;;;;19.90;40.00;;;;;;8358135;28;20003;-58
2024/03/24 13:49:43;;;;;;;;;;;19.90;39.90;;;;;;8357826;28;19909;-57
2024/03/24 13:53:48;;;;;;;;;;;20.00;39.70;;;;;;8358109;28;19913;-57
2024/03/24 13:57:48;;;;;;;;;;;20.00;39.60;;;;;;8357916;28;19952;-57
2024/03/24 14:01:49;;;;;;;;;;;20.00;39.50;;;;;;8357807;28;19924;-57
2024/03/24 14:05:50;;;;;;;;;;;20.00;39.40;;;;;;8357625;28;19913;-57
2024/03/24 14:09:52;;;;;;;;;;;20.00;39.30;;;;;;8357829;28;20291;-57
2024/03/24 14:14:04;;;;;;;;;;;20.00;39.30;;;;;;8356771;27;19929;-58
2024/03/24 14:18:25;;;;;;;;;;;19.90;40.50;;;;;;8357606;28;19909;-58
2024/03/24 14:22:30;;;;;;;;;;;19.80;41.20;;;;;;8357304;28;19913;-57
2024/03/24 14:26:31;;;;;;;;;;;19.90;40.50;;;;;;8357558;28;19909;-57
2024/03/24 14:30:31;;;;;;;;;;;19.90;40.10;;;;;;8357240;28;19919;-56
2024/03/24 14:34:33;;;;;;;;;;;19.90;39.90;;;;;;8357123;28;19923;-56
2024/03/24 14:38:36;;;;;;;;;;;20.00;39.70;;;;;;8356796;28;19912;-56
2024/03/24 14:42:47;;;;;;;;;;;19.90;39.50;;;;;;8356753;27;19912;-55
2024/03/24 14:46:54;;;;;;;;;;;20.00;39.50;;;;;;8357324;28;19905;-56
2024/03/24 14:50:55;;;;;;;;;;;20.00;39.90;;;;;;8356629;28;20398;-56
2024/03/24 14:54:56;;;;;;;;;;;20.00;39.30;;;;;;8356442;28;19913;-55
2024/03/24 14:58:56;;;;;;;;;;;20.00;39.20;;;;;;8356455;28;20288;-56
2024/03/24 15:02:57;;;;;;;;;;;20.00;39.70;;;;;;8338555;28;19916;-56
2024/03/24 15:06:58;;;;;;;;;;;19.80;40.60;;;;;;8356228;28;20553;-55
2024/03/24 15:10:59;;;;;;;;;;;19.80;40.90;;;;;;8356218;28;20097;-56
2024/03/24 15:14:59;;;;;;;;;;;19.80;40.30;;;;;;8355806;27;20402;-56
2024/03/24 15:19:00;;;;;;;;;;;19.80;39.90;;;;;;8355919;28;19923;-55
2024/03/24 15:23:00;;;;;;;;;;;19.90;39.70;;;;;;8355733;28;20358;-54
2024/03/24 15:27:01;;;;;;;;;;;19.90;39.60;;;;;;8356002;28;20003;-55
2024/03/24 15:31:02;;;;;;;;;;;19.90;39.40;;;;;;8355516;28;19916;-55
2024/03/24 15:35:04;;;;;;;;;;;19.90;39.30;;;;;;8355682;28;19917;-54
2024/03/24 15:39:05;;;;;;;;;;;19.90;39.30;;;;;;8355422;28;19909;-56
2024/03/24 15:43:07;;;;;;;;;;;19.90;39.20;;;;;;8355123;28;19982;-57
2024/03/24 15:47:08;;;;;;;;;;;20.00;39.10;;;;;;8355515;28;19920;-56
2024/03/24 15:51:08;;;;;;;;;;;19.90;39.60;;;;;;8355527;28;19913;-58
2024/03/24 15:55:09;;;;;;;;;;;19.80;40.50;;;;;;8355036;28;20341;-57
2024/03/24 15:59:28;;;;;;;;;;;19.80;40.60;;;;;;8355191;28;19965;-58
2024/03/24 16:03:28;;;;;;;;;;;19.90;40.10;;;;;;8355030;28;19928;-58
2024/03/24 16:07:32;;;;;;;;;;;19.90;39.80;;;;;;8355053;28;20008;-57
2024/03/24 16:11:33;;;;;;;;;;;20.00;39.60;;;;;;8354776;27;19963;-57
2024/03/24 16:15:34;;;;;;;;;;;19.90;39.30;;;;;;8354674;28;19927;-56
2024/03/24 16:19:34;;;;;;;;;;;20.00;39.30;;;;;;8354415;28;19909;-58
2024/03/24 16:23:35;;;;;;;;;;;20.00;39.20;;;;;;8355539;28;20311;-58
2024/03/24 16:27:35;;;;;;;;;;;20.00;39.10;;;;;;8354578;28;19913;-58
2024/03/24 16:31:36;;;;;;;;;;;20.00;39.00;;;;;;8354573;28;20388;-56
2024/03/24 16:35:37;;;;;;;;;;;20.00;38.90;;;;;;8354264;28;19966;-58
2024/03/24 16:39:39;;;;;;;;;;;19.90;39.50;;;;;;8359017;28;19956;-57
2024/03/24 16:43:40;;;;;;;;;;;19.80;40.60;;;;;;8359661;27;19973;-57
2024/03/24 16:47:40;;;;;;;;;;;19.90;40.50;;;;;;8359799;28;20007;-58
2024/03/24 16:51:41;;;;;;;;;;;19.90;39.90;;;;;;8359621;28;20418;-57
2024/03/24 16:55:42;;;;;;;;;;;19.90;39.60;;;;;;8359537;28;20399;-58
2024/03/24 16:59:42;;;;;;;;;;;19.90;39.40;;;;;;8359496;28;20016;-57
2024/03/24 17:03:43;;;;;;;;;;;20.00;39.30;;;;;;8359288;28;19917;-57
2024/03/24 17:07:43;;;;;;;;;;;19.90;39.10;;;;;;8358938;28;19975;-56
2024/03/24 17:11:44;;;;;;;;;;;20.00;39.00;;;;;;8361089;27;19917;-57
2024/03/24 17:15:45;;;;;;;;;;;20.00;38.90;;;;;;8359584;27;20293;-57
2024/03/24 17:19:45;;;;;;;;;;;20.00;38.90;;;;;;8359122;28;19920;-57
2024/03/24 17:23:46;;;;;;;;;;;20.00;38.80;;;;;;8358780;28;19921;-57
2024/03/24 17:27:46;;;;;;;;;;;19.90;39.60;;;;;;8358431;27;19924;-56
2024/03/24 17:31:47;;;;;;;;;;;19.80;40.40;;;;;;8358967;28;20519;-56
2024/03/24 17:35:48;;;;;;;;;;;19.80;40.10;;;;;;8358989;28;19913;-58
2024/03/24 17:39:48;;;;;;;;;;;19.90;39.70;;;;;;8358204;28;20438;-57
2024/03/24 17:43:49;;;;;;;;;;;19.90;39.50;;;;;;8358126;28;19923;-57
2024/03/24 17:47:50;;;;;;;;;;;19.90;39.30;;;;;;8358376;28;20412;-57
2024/03/24 17:51:50;;;;;;;;;;;20.00;39.20;;;;;;8357502;28;19913;-57
2024/03/24 17:55:51;;;;;;;;;;;20.00;39.00;;;;;;8358108;28;19920;-57
2024/03/24 17:59:51;;;;;;;;;;;20.00;38.90;;;;;;8357925;28;19920;-56
2024/03/24 18:03:52;;;;;;;;;;;19.90;38.80;;;;;;8357553;28;19950;-56
2024/03/24 18:12:13;;;;;;;;;;;20.00;38.80;;;;;;8357622;27;19935;-55
2024/03/24 18:16:13;;;;;;;;;;;19.90;39.80;;;;;;8357301;28;19945;-57
2024/03/24 18:20:15;;;;;;;;;;;19.70;40.60;;;;;;8357505;28;19913;-58
2024/03/24 18:24:15;;;;;;;;;;;19.70;40.20;;;;;;8357186;28;20362;-57
2024/03/24 18:28:20;;;;;;;;;;;19.80;39.80;;;;;;8357076;28;20338;-58
2024/03/24 18:32:21;;;;;;;;;;;19.80;39.40;;;;;;8357076;28;19913;-56
2024/03/24 18:36:22;;;;;;;;;;;19.90;39.20;;;;;;8339570;28;19913;-58
2024/03/24 18:40:22;;;;;;;;;;;19.90;39.00;;;;;;8356706;28;19913;-58
2024/03/24 18:44:24;;;;;;;;;;;19.90;38.90;;;;;;8356345;28;20424;-57
2024/03/24 18:48:24;;;;;;;;;;;20.00;38.80;;;;;;8356813;28;19913;-58
2024/03/24 18:52:25;;;;;;;;;;;19.90;38.70;;;;;;8356454;28;19920;-58
2024/03/24 18:56:26;;;;;;;;;;;19.90;38.70;;;;;;8356297;28;19916;-58
2024/03/24 19:00:27;;;;;;;;;;;19.90;38.70;;;;;;8356355;28;20400;-57
2024/03/24 19:04:30;;;;;;;;;;;19.80;39.90;;;;;;8356239;28;20553;-59
2024/03/24 19:08:31;;;;;;;;;;;19.60;40.60;;;;;;8356012;28;19920;-56
2024/03/24 19:12:32;;;;;;;;;;;19.70;40.10;;;;;;8356071;28;19924;-54
2024/03/24 19:16:32;;;;;;;;;;;19.70;40.00;;;;;;8355782;28;20457;-55
2024/03/24 19:20:33;;;;;;;;;;;19.80;40.10;;;;;;8337926;28;19913;-53
2024/03/24 19:24:33;;;;;;;;;;;19.90;40.30;;;;;;8356017;28;19920;-55
2024/03/24 19:28:34;;;;;;;;;;;19.90;39.90;;;;;;8355680;28;19913;-53
2024/03/24 19:32:34;;;;;;;;;;;20.00;39.70;;;;;;8355944;28;19955;-55
2024/03/24 19:36:37;;;;;;;;;;;20.10;39.90;;;;;;8355712;28;19913;-55
2024/03/24 19:40:38;;;;;;;;;;;20.00;40.00;;;;;;8355344;28;19920;-55
2024/03/24 19:44:38;;;;;;;;;;;20.10;39.80;;;;;;8355374;27;19919;-54
2024/03/24 19:48:39;;;;;;;;;;;20.10;39.80;;;;;;8355832;28;19927;-54
2024/03/24 19:52:40;;;;;;;;;;;20.00;41.10;;;;;;8355504;28;20169;-55
2024/03/24 19:56:40;;;;;;;;;;;19.90;41.60;;;;;;8355265;28;20366;-54
2024/03/24 20:00:41;;;;;;;;;;;19.90;41.20;;;;;;8354885;28;19965;-54
2024/03/24 20:04:42;;;;;;;;;;;20.00;40.90;;;;;;8355866;28;19940;-54
2024/03/24 20:08:42;;;;;;;;;;;20.10;40.50;;;;;;8354838;28;19913;-54
2024/03/24 20:12:43;;;;;;;;;;;20.10;40.10;;;;;;8354891;28;20356;-56
2024/03/24 20:16:44;;;;;;;;;;;20.10;40.30;;;;;;8360544;28;19924;-59
2024/03/24 20:20:49;;;;;;;;;;;20.20;40.60;;;;;;8360586;28;19983;-57
2024/03/24 20:24:50;;;;;;;;;;;20.20;40.50;;;;;;8360257;28;19940;-55
2024/03/24 20:28:52;;;;;;;;;;;20.30;40.80;;;;;;8360225;28;19913;-61
2024/03/24 20:32:53;;;;;;;;;;;20.40;42.40;;;;;;8342512;28;20007;-57
2024/03/24 20:36:54;;;;;;;;;;;20.40;47.00;;;;;;8359937;28;19920;-53
2024/03/24 20:40:54;;;;;;;;;;;20.30;44.10;;;;;;8354364;28;19970;-54
2024/03/24 20:44:55;;;;;;;;;;;20.20;44.30;;;;;;8349371;27;19911;-58
2024/03/24 20:48:55;;;;;;;;;;;20.20;43.10;;;;;;8532996;27;20310;-57
2024/03/24 20:52:57;;;;;;;;;;;20.30;42.30;;;;;;8533850;27;19918;-58
2024/03/24 20:56:58;;;;;;;;;;;20.40;41.70;;;;;;8515769;27;19946;-58
2024/03/24 21:00:59;;;;;;;;;;;20.40;41.80;;;;;;8533723;27;19916;-57
2024/03/24 21:05:00;;;;;;;;;;;20.40;41.40;;;;;;8411713;27;20381;-55
2024/03/24 21:09:03;;;;;;;;;;;20.40;41.20;;;;;;8359518;28;20515;-57
2024/03/24 21:13:03;;;;;;;;;;;20.40;41.10;;;;;;8359139;28;19917;-56
2024/03/24 21:17:04;;;;;;;;;;;20.50;41.20;;;;;;8359301;28;19916;-59
2024/03/24 21:21:05;;;;;;;;;;;20.50;40.80;;;;;;8340769;28;19917;-56
2024/03/24 21:25:05;;;;;;;;;;;20.50;41.00;;;;;;8357724;28;20362;-56
2024/03/24 21:29:06;;;;;;;;;;;20.30;42.00;;;;;;8358677;28;19968;-59
2024/03/24 21:33:07;;;;;;;;;;;20.20;42.30;;;;;;8358599;28;19917;-51
2024/03/24 21:37:07;;;;;;;;;;;20.20;41.80;;;;;;8358849;28;19913;-51
2024/03/24 21:45:27;;;;;;;;;;;20.30;41.40;;;;;;8325338;28;20424;-52
2024/03/24 21:49:27;;;;;;;;;;;20.40;41.00;;;;;;8325214;28;20305;-54
2024/03/24 21:53:28;;;;;;;;;;;20.40;41.10;;;;;;8325553;28;19913;-54
2024/03/24 21:57:28;;;;;;;;;;;20.40;41.00;;;;;;8358496;28;19954;-57
2024/03/24 22:01:29;;;;;;;;;;;20.50;40.60;;;;;;8357679;28;19917;-52
2024/03/24 22:05:29;;;;;;;;;;;20.50;40.70;;;;;;8340007;28;20374;-54
2024/03/24 22:09:31;;;;;;;;;;;20.50;40.40;;;;;;8357704;28;19913;-52
2024/03/24 22:13:31;;;;;;;;;;;20.40;41.50;;;;;;8359035;27;19994;-61
2024/03/24 22:17:32;;;;;;;;;;;20.30;41.90;;;;;;8357732;28;19958;-57
2024/03/24 22:21:32;;;;;;;;;;;20.20;42.30;;;;;;8357411;28;20391;-48
2024/03/24 22:25:33;;;;;;;;;;;20.30;41.70;;;;;;8357120;28;20421;-57
2024/03/24 22:29:34;;;;;;;;;;;20.30;41.60;;;;;;8356576;28;20290;-54
2024/03/24 22:33:35;;;;;;;;;;;20.30;41.80;;;;;;8359274;28;19924;-52
2024/03/24 22:37:35;;;;;;;;;;;20.40;41.00;;;;;;8359720;28;19977;-50
2024/03/24 22:41:37;;;;;;;;;;;20.50;40.80;;;;;;8361100;27;20015;-51
2024/03/24 22:45:37;;;;;;;;;;;20.50;40.60;;;;;;8358848;28;20373;-50
2024/03/24 22:49:38;;;;;;;;;;;20.40;40.50;;;;;;8358843;28;20293;-53
2024/03/24 22:53:44;;;;;;;;;;;20.50;40.50;;;;;;8358649;28;19947;-53
2024/03/24 22:57:44;;;;;;;;;;;20.40;40.30;;;;;;8358830;28;19913;-49
2024/03/24 23:01:45;;;;;;;;;;;20.40;40.50;;;;;;8358402;28;19917;-52
2024/03/24 23:05:45;;;;;;;;;;;20.30;41.30;;;;;;8358446;28;19909;-50
2024/03/24 23:09:46;;;;;;;;;;;20.20;41.70;;;;;;8358320;28;19909;-50
2024/03/24 23:13:47;;;;;;;;;;;20.20;41.50;;;;;;8369834;27;19928;-51
2024/03/24 23:17:47;;;;;;;;;;;20.20;41.20;;;;;;8387659;28;19917;-52
2024/03/24 23:21:48;;;;;;;;;;;20.30;41.10;;;;;;8388036;28;19917;-50
2024/03/24 23:25:49;;;;;;;;;;;20.30;40.80;;;;;;8388482;28;19913;-51
2024/03/24 23:29:49;;;;;;;;;;;20.30;40.80;;;;;;8388201;27;19909;-51